sensor_id;sensor_type;location;lat;lon;timestamp;P1;durP1;ratioP1;P2;durP2;ratioP2
66342;SDS011;53144;51.524;5.080;2022-08-23T00:01:06;13.48;;;5.03;;
66342;SDS011;53144;51.524;5.080;2022-08-23T00:03:34;10.88;;;4.90;;
66342;SDS011;53144;51.524;5.080;2022-08-23T00:06:00;9.95;;;5.32;;
66342;SDS011;53144;51.524;5.080;2022-08-23T00:08:25;11.18;;;5.90;;
66342;SDS011;53144;51.524;5.080;2022-08-23T00:10:51;11.27;;;5.30;;
66342;SDS011;53144;51.524;5.080;2022-08-23T00:13:16;9.77;;;5.05;;
66342;SDS011;53144;51.524;5.080;2022-08-23T00:15:42;9.50;;;4.93;;
66342;SDS011;53144;51.524;5.080;2022-08-23T00:18:07;11.50;;;5.50;;
66342;SDS011;53144;51.524;5.080;2022-08-23T00:20:33;10.73;;;5.43;;
66342;SDS011;53144;51.524;5.080;2022-08-23T00:22:58;9.05;;;5.28;;
66342;SDS011;53144;51.524;5.080;2022-08-23T00:25:24;10.13;;;5.03;;
66342;SDS011;53144;51.524;5.080;2022-08-23T00:27:49;8.15;;;4.85;;
66342;SDS011;53144;51.524;5.080;2022-08-23T00:30:14;7.47;;;5.18;;
66342;SDS011;53144;51.524;5.080;2022-08-23T00:32:41;12.68;;;5.55;;
66342;SDS011;53144;51.524;5.080;2022-08-23T00:35:08;9.40;;;5.00;;
66342;SDS011;53144;51.524;5.080;2022-08-23T00:37:35;12.90;;;5.50;;
66342;SDS011;53144;51.524;5.080;2022-08-23T00:40:02;9.50;;;5.07;;
66342;SDS011;53144;51.524;5.080;2022-08-23T00:42:32;16.23;;;6.35;;
66342;SDS011;53144;51.524;5.080;2022-08-23T00:45:18;11.35;;;5.75;;
66342;SDS011;53144;51.524;5.080;2022-08-23T00:48:07;12.82;;;6.18;;
66342;SDS011;53144;51.524;5.080;2022-08-23T00:51:34;20.30;;;6.43;;
66342;SDS011;53144;51.524;5.080;2022-08-23T00:53:45;17.43;;;6.33;;
66342;SDS011;53144;51.524;5.080;2022-08-23T00:56:14;13.57;;;6.55;;
66342;SDS011;53144;51.524;5.080;2022-08-23T00:58:42;12.43;;;6.78;;
66342;SDS011;53144;51.524;5.080;2022-08-23T01:01:10;11.50;;;7.20;;
66342;SDS011;53144;51.524;5.080;2022-08-23T01:03:37;14.15;;;6.40;;
66342;SDS011;53144;51.524;5.080;2022-08-23T01:06:15;9.57;;;5.88;;
66342;SDS011;53144;51.524;5.080;2022-08-23T01:08:48;10.90;;;6.25;;
66342;SDS011;53144;51.524;5.080;2022-08-23T01:11:19;8.90;;;5.65;;
66342;SDS011;53144;51.524;5.080;2022-08-23T01:13:59;9.20;;;5.45;;
66342;SDS011;53144;51.524;5.080;2022-08-23T01:16:38;9.02;;;6.22;;
66342;SDS011;53144;51.524;5.080;2022-08-23T01:22:12;8.63;;;5.40;;
66342;SDS011;53144;51.524;5.080;2022-08-23T01:24:43;6.47;;;5.45;;
66342;SDS011;53144;51.524;5.080;2022-08-23T01:27:09;9.70;;;5.70;;
66342;SDS011;53144;51.524;5.080;2022-08-23T01:29:37;11.85;;;5.80;;
66342;SDS011;53144;51.524;5.080;2022-08-23T01:32:03;9.48;;;5.55;;
66342;SDS011;53144;51.524;5.080;2022-08-23T01:34:29;9.52;;;5.93;;
66342;SDS011;53144;51.524;5.080;2022-08-23T01:36:55;10.93;;;5.85;;
66342;SDS011;53144;51.524;5.080;2022-08-23T01:39:22;13.38;;;6.28;;
66342;SDS011;53144;51.524;5.080;2022-08-23T01:41:47;10.68;;;5.85;;
66342;SDS011;53144;51.524;5.080;2022-08-23T01:44:13;11.35;;;6.13;;
66342;SDS011;53144;51.524;5.080;2022-08-23T01:46:41;10.43;;;5.40;;
66342;SDS011;53144;51.524;5.080;2022-08-23T01:49:08;9.00;;;5.90;;
66342;SDS011;53144;51.524;5.080;2022-08-23T01:51:34;11.10;;;6.00;;
66342;SDS011;53144;51.524;5.080;2022-08-23T01:53:59;10.80;;;6.28;;
66342;SDS011;53144;51.524;5.080;2022-08-23T01:56:24;9.45;;;6.68;;
66342;SDS011;53144;51.524;5.080;2022-08-23T01:58:50;11.68;;;6.70;;
66342;SDS011;53144;51.524;5.080;2022-08-23T02:01:16;9.32;;;6.75;;
66342;SDS011;53144;51.524;5.080;2022-08-23T02:03:42;10.57;;;6.53;;
66342;SDS011;53144;51.524;5.080;2022-08-23T02:06:08;10.13;;;6.80;;
66342;SDS011;53144;51.524;5.080;2022-08-23T02:08:34;10.93;;;6.40;;
66342;SDS011;53144;51.524;5.080;2022-08-23T02:11:19;8.95;;;7.05;;
66342;SDS011;53144;51.524;5.080;2022-08-23T02:13:46;10.32;;;6.72;;
66342;SDS011;53144;51.524;5.080;2022-08-23T02:16:12;8.75;;;6.53;;
66342;SDS011;53144;51.524;5.080;2022-08-23T02:18:49;8.60;;;6.43;;
66342;SDS011;53144;51.524;5.080;2022-08-23T02:21:14;10.38;;;6.60;;
66342;SDS011;53144;51.524;5.080;2022-08-23T02:23:40;11.30;;;6.50;;
66342;SDS011;53144;51.524;5.080;2022-08-23T02:26:05;8.05;;;6.30;;
66342;SDS011;53144;51.524;5.080;2022-08-23T02:28:31;9.57;;;6.57;;
66342;SDS011;53144;51.524;5.080;2022-08-23T02:30:56;14.77;;;7.07;;
66342;SDS011;53144;51.524;5.080;2022-08-23T02:33:21;9.50;;;6.60;;
66342;SDS011;53144;51.524;5.080;2022-08-23T02:35:47;9.63;;;6.20;;
66342;SDS011;53144;51.524;5.080;2022-08-23T02:38:13;9.75;;;6.88;;
66342;SDS011;53144;51.524;5.080;2022-08-23T02:40:39;8.13;;;6.90;;
66342;SDS011;53144;51.524;5.080;2022-08-23T02:43:06;10.43;;;6.72;;
66342;SDS011;53144;51.524;5.080;2022-08-23T02:45:32;12.07;;;7.07;;
66342;SDS011;53144;51.524;5.080;2022-08-23T02:47:58;12.73;;;6.72;;
66342;SDS011;53144;51.524;5.080;2022-08-23T02:50:24;8.68;;;6.65;;
66342;SDS011;53144;51.524;5.080;2022-08-23T02:52:49;11.30;;;7.10;;
66342;SDS011;53144;51.524;5.080;2022-08-23T02:55:15;13.50;;;7.00;;
66342;SDS011;53144;51.524;5.080;2022-08-23T02:57:40;9.27;;;6.80;;
66342;SDS011;53144;51.524;5.080;2022-08-23T03:00:07;9.18;;;6.80;;
66342;SDS011;53144;51.524;5.080;2022-08-23T03:02:35;9.85;;;7.00;;
66342;SDS011;53144;51.524;5.080;2022-08-23T03:05:02;9.82;;;6.70;;
66342;SDS011;53144;51.524;5.080;2022-08-23T03:07:28;9.32;;;6.22;;
66342;SDS011;53144;51.524;5.080;2022-08-23T03:09:55;9.00;;;6.72;;
66342;SDS011;53144;51.524;5.080;2022-08-23T03:12:20;9.85;;;6.63;;
66342;SDS011;53144;51.524;5.080;2022-08-23T03:14:45;11.43;;;6.85;;
66342;SDS011;53144;51.524;5.080;2022-08-23T03:17:11;14.18;;;7.50;;
66342;SDS011;53144;51.524;5.080;2022-08-23T03:19:36;9.80;;;7.13;;
66342;SDS011;53144;51.524;5.080;2022-08-23T03:22:02;15.68;;;7.45;;
66342;SDS011;53144;51.524;5.080;2022-08-23T03:24:27;14.48;;;7.32;;
66342;SDS011;53144;51.524;5.080;2022-08-23T03:26:53;15.15;;;7.25;;
66342;SDS011;53144;51.524;5.080;2022-08-23T03:29:18;15.70;;;6.93;;
66342;SDS011;53144;51.524;5.080;2022-08-23T03:31:44;12.32;;;6.90;;
66342;SDS011;53144;51.524;5.080;2022-08-23T03:34:10;11.35;;;7.50;;
66342;SDS011;53144;51.524;5.080;2022-08-23T03:36:36;8.90;;;7.30;;
66342;SDS011;53144;51.524;5.080;2022-08-23T03:39:02;11.60;;;7.55;;
66342;SDS011;53144;51.524;5.080;2022-08-23T03:41:29;10.13;;;7.43;;
66342;SDS011;53144;51.524;5.080;2022-08-23T03:43:54;15.15;;;6.70;;
66342;SDS011;53144;51.524;5.080;2022-08-23T03:46:20;9.60;;;7.22;;
66342;SDS011;53144;51.524;5.080;2022-08-23T03:48:52;11.48;;;7.63;;
66342;SDS011;53144;51.524;5.080;2022-08-23T03:51:24;18.58;;;7.70;;
66342;SDS011;53144;51.524;5.080;2022-08-23T03:53:51;9.77;;;7.53;;
66342;SDS011;53144;51.524;5.080;2022-08-23T03:56:35;10.02;;;7.22;;
66342;SDS011;53144;51.524;5.080;2022-08-23T03:59:05;11.07;;;7.23;;
66342;SDS011;53144;51.524;5.080;2022-08-23T04:01:33;14.30;;;7.53;;
66342;SDS011;53144;51.524;5.080;2022-08-23T04:03:58;12.07;;;7.22;;
66342;SDS011;53144;51.524;5.080;2022-08-23T04:06:24;9.20;;;7.03;;
66342;SDS011;53144;51.524;5.080;2022-08-23T04:08:51;9.25;;;7.22;;
66342;SDS011;53144;51.524;5.080;2022-08-23T04:11:18;15.00;;;7.57;;
66342;SDS011;53144;51.524;5.080;2022-08-23T04:13:44;11.48;;;6.40;;
66342;SDS011;53144;51.524;5.080;2022-08-23T04:16:10;11.32;;;7.55;;
66342;SDS011;53144;51.524;5.080;2022-08-23T04:18:35;9.52;;;7.20;;
66342;SDS011;53144;51.524;5.080;2022-08-23T04:21:03;12.30;;;7.60;;
66342;SDS011;53144;51.524;5.080;2022-08-23T04:23:34;14.55;;;7.72;;
66342;SDS011;53144;51.524;5.080;2022-08-23T04:26:00;10.77;;;7.70;;
66342;SDS011;53144;51.524;5.080;2022-08-23T04:28:26;11.55;;;8.05;;
66342;SDS011;53144;51.524;5.080;2022-08-23T04:30:51;11.35;;;7.70;;
66342;SDS011;53144;51.524;5.080;2022-08-23T04:33:17;10.25;;;7.45;;
66342;SDS011;53144;51.524;5.080;2022-08-23T04:35:43;10.60;;;7.53;;
66342;SDS011;53144;51.524;5.080;2022-08-23T04:38:09;10.27;;;6.70;;
66342;SDS011;53144;51.524;5.080;2022-08-23T04:40:35;18.17;;;7.95;;
66342;SDS011;53144;51.524;5.080;2022-08-23T04:43:19;9.23;;;7.07;;
66342;SDS011;53144;51.524;5.080;2022-08-23T04:45:45;14.40;;;7.13;;
66342;SDS011;53144;51.524;5.080;2022-08-23T04:48:11;15.55;;;7.22;;
66342;SDS011;53144;51.524;5.080;2022-08-23T04:50:36;10.63;;;6.95;;
66342;SDS011;53144;51.524;5.080;2022-08-23T04:53:02;10.98;;;6.53;;
66342;SDS011;53144;51.524;5.080;2022-08-23T04:55:27;12.75;;;7.00;;
66342;SDS011;53144;51.524;5.080;2022-08-23T04:57:53;9.52;;;6.63;;
66342;SDS011;53144;51.524;5.080;2022-08-23T05:00:19;14.40;;;6.68;;
66342;SDS011;53144;51.524;5.080;2022-08-23T05:02:45;10.73;;;6.72;;
66342;SDS011;53144;51.524;5.080;2022-08-23T05:05:11;12.13;;;7.32;;
66342;SDS011;53144;51.524;5.080;2022-08-23T05:07:37;11.77;;;6.70;;
66342;SDS011;53144;51.524;5.080;2022-08-23T05:10:04;9.48;;;6.47;;
66342;SDS011;53144;51.524;5.080;2022-08-23T05:12:31;11.73;;;7.30;;
66342;SDS011;53144;51.524;5.080;2022-08-23T05:14:57;10.65;;;6.88;;
66342;SDS011;53144;51.524;5.080;2022-08-23T05:17:23;11.88;;;7.40;;
66342;SDS011;53144;51.524;5.080;2022-08-23T05:19:48;9.63;;;6.68;;
66342;SDS011;53144;51.524;5.080;2022-08-23T05:22:13;11.68;;;7.20;;
66342;SDS011;53144;51.524;5.080;2022-08-23T05:24:39;7.85;;;6.22;;
66342;SDS011;53144;51.524;5.080;2022-08-23T05:27:04;10.20;;;6.18;;
66342;SDS011;53144;51.524;5.080;2022-08-23T05:29:30;9.63;;;6.38;;
66342;SDS011;53144;51.524;5.080;2022-08-23T05:31:55;12.45;;;7.43;;
66342;SDS011;53144;51.524;5.080;2022-08-23T05:34:21;16.10;;;7.45;;
66342;SDS011;53144;51.524;5.080;2022-08-23T05:36:47;11.20;;;7.72;;
66342;SDS011;53144;51.524;5.080;2022-08-23T05:39:13;10.77;;;7.75;;
66342;SDS011;53144;51.524;5.080;2022-08-23T05:41:40;10.52;;;7.35;;
66342;SDS011;53144;51.524;5.080;2022-08-23T05:44:06;11.82;;;7.57;;
66342;SDS011;53144;51.524;5.080;2022-08-23T05:46:32;10.13;;;7.97;;
66342;SDS011;53144;51.524;5.080;2022-08-23T05:48:58;9.65;;;8.13;;
66342;SDS011;53144;51.524;5.080;2022-08-23T05:51:28;10.23;;;7.82;;
66342;SDS011;53144;51.524;5.080;2022-08-23T05:53:56;11.05;;;8.13;;
66342;SDS011;53144;51.524;5.080;2022-08-23T05:56:25;9.75;;;7.82;;
66342;SDS011;53144;51.524;5.080;2022-08-23T05:58:54;14.48;;;8.43;;
66342;SDS011;53144;51.524;5.080;2022-08-23T06:01:22;16.73;;;8.90;;
66342;SDS011;53144;51.524;5.080;2022-08-23T06:03:47;13.40;;;9.70;;
66342;SDS011;53144;51.524;5.080;2022-08-23T06:06:13;16.38;;;11.38;;
66342;SDS011;53144;51.524;5.080;2022-08-23T06:08:40;13.60;;;8.50;;
66342;SDS011;53144;51.524;5.080;2022-08-23T06:11:10;16.05;;;9.50;;
66342;SDS011;53144;51.524;5.080;2022-08-23T06:13:42;18.30;;;9.90;;
66342;SDS011;53144;51.524;5.080;2022-08-23T06:16:11;14.40;;;11.07;;
66342;SDS011;53144;51.524;5.080;2022-08-23T06:18:38;18.75;;;9.85;;
66342;SDS011;53144;51.524;5.080;2022-08-23T06:21:05;13.27;;;9.85;;
66342;SDS011;53144;51.524;5.080;2022-08-23T06:23:33;17.83;;;10.15;;
66342;SDS011;53144;51.524;5.080;2022-08-23T06:25:59;12.43;;;9.70;;
66342;SDS011;53144;51.524;5.080;2022-08-23T06:28:27;16.30;;;9.63;;
66342;SDS011;53144;51.524;5.080;2022-08-23T06:30:54;15.57;;;10.25;;
66342;SDS011;53144;51.524;5.080;2022-08-23T06:33:20;15.02;;;10.15;;
66342;SDS011;53144;51.524;5.080;2022-08-23T06:35:46;12.05;;;9.30;;
66342;SDS011;53144;51.524;5.080;2022-08-23T06:38:13;14.95;;;9.98;;
66342;SDS011;53144;51.524;5.080;2022-08-23T06:40:38;15.13;;;10.60;;
66342;SDS011;53144;51.524;5.080;2022-08-23T06:43:03;15.30;;;10.48;;
66342;SDS011;53144;51.524;5.080;2022-08-23T06:45:29;15.88;;;10.98;;
66342;SDS011;53144;51.524;5.080;2022-08-23T06:47:55;17.27;;;11.35;;
66342;SDS011;53144;51.524;5.080;2022-08-23T06:50:21;15.77;;;10.60;;
66342;SDS011;53144;51.524;5.080;2022-08-23T06:52:47;17.67;;;11.30;;
66342;SDS011;53144;51.524;5.080;2022-08-23T06:55:13;16.52;;;11.68;;
66342;SDS011;53144;51.524;5.080;2022-08-23T06:57:39;16.42;;;11.60;;
66342;SDS011;53144;51.524;5.080;2022-08-23T07:00:08;19.23;;;12.85;;
66342;SDS011;53144;51.524;5.080;2022-08-23T07:02:35;18.95;;;13.77;;
66342;SDS011;53144;51.524;5.080;2022-08-23T07:05:01;16.27;;;12.32;;
66342;SDS011;53144;51.524;5.080;2022-08-23T07:07:27;19.23;;;12.60;;
66342;SDS011;53144;51.524;5.080;2022-08-23T07:09:53;18.55;;;13.07;;
66342;SDS011;53144;51.524;5.080;2022-08-23T07:12:18;19.30;;;12.93;;
66342;SDS011;53144;51.524;5.080;2022-08-23T07:14:44;20.00;;;13.30;;
66342;SDS011;53144;51.524;5.080;2022-08-23T07:17:10;27.45;;;14.73;;
66342;SDS011;53144;51.524;5.080;2022-08-23T07:19:36;19.23;;;13.63;;
66342;SDS011;53144;51.524;5.080;2022-08-23T07:22:03;22.20;;;14.75;;
66342;SDS011;53144;51.524;5.080;2022-08-23T07:24:29;16.90;;;13.60;;
66342;SDS011;53144;51.524;5.080;2022-08-23T07:26:56;31.23;;;15.40;;
66342;SDS011;53144;51.524;5.080;2022-08-23T07:29:22;19.67;;;14.95;;
66342;SDS011;53144;51.524;5.080;2022-08-23T07:31:52;16.80;;;13.93;;
66342;SDS011;53144;51.524;5.080;2022-08-23T07:34:19;25.63;;;14.18;;
66342;SDS011;53144;51.524;5.080;2022-08-23T07:36:46;18.20;;;14.27;;
66342;SDS011;53144;51.524;5.080;2022-08-23T07:39:13;22.13;;;14.88;;
66342;SDS011;53144;51.524;5.080;2022-08-23T07:41:40;22.38;;;15.43;;
66342;SDS011;53144;51.524;5.080;2022-08-23T07:44:07;22.92;;;14.93;;
66342;SDS011;53144;51.524;5.080;2022-08-23T07:46:33;20.52;;;14.20;;
66342;SDS011;53144;51.524;5.080;2022-08-23T07:49:00;20.15;;;14.05;;
66342;SDS011;53144;51.524;5.080;2022-08-23T07:51:27;16.85;;;14.38;;
66342;SDS011;53144;51.524;5.080;2022-08-23T07:53:53;22.05;;;14.95;;
66342;SDS011;53144;51.524;5.080;2022-08-23T07:56:19;21.63;;;14.73;;
66342;SDS011;53144;51.524;5.080;2022-08-23T07:58:45;19.83;;;13.95;;
66342;SDS011;53144;51.524;5.080;2022-08-23T08:01:12;25.00;;;15.32;;
66342;SDS011;53144;51.524;5.080;2022-08-23T08:03:39;19.58;;;13.73;;
66342;SDS011;53144;51.524;5.080;2022-08-23T08:06:16;19.17;;;14.73;;
66342;SDS011;53144;51.524;5.080;2022-08-23T08:08:44;20.25;;;14.35;;
66342;SDS011;53144;51.524;5.080;2022-08-23T08:11:10;20.02;;;14.68;;
66342;SDS011;53144;51.524;5.080;2022-08-23T08:13:41;15.93;;;12.60;;
66342;SDS011;53144;51.524;5.080;2022-08-23T08:16:08;16.75;;;11.55;;
66342;SDS011;53144;51.524;5.080;2022-08-23T08:18:34;16.15;;;11.73;;
66342;SDS011;53144;51.524;5.080;2022-08-23T08:21:01;14.88;;;12.20;;
66342;SDS011;53144;51.524;5.080;2022-08-23T08:23:27;19.73;;;13.82;;
66342;SDS011;53144;51.524;5.080;2022-08-23T08:25:59;17.65;;;13.20;;
66342;SDS011;53144;51.524;5.080;2022-08-23T08:28:26;15.18;;;12.32;;
66342;SDS011;53144;51.524;5.080;2022-08-23T08:30:51;14.18;;;12.32;;
66342;SDS011;53144;51.524;5.080;2022-08-23T08:33:17;18.88;;;12.13;;
66342;SDS011;53144;51.524;5.080;2022-08-23T08:35:45;18.15;;;11.38;;
66342;SDS011;53144;51.524;5.080;2022-08-23T08:38:12;15.02;;;9.82;;
66342;SDS011;53144;51.524;5.080;2022-08-23T08:40:37;15.40;;;8.07;;
66342;SDS011;53144;51.524;5.080;2022-08-23T08:46:06;21.13;;;5.60;;
66342;SDS011;53144;51.524;5.080;2022-08-23T08:48:39;15.23;;;7.18;;
66342;SDS011;53144;51.524;5.080;2022-08-23T08:51:30;14.32;;;5.43;;
66342;SDS011;53144;51.524;5.080;2022-08-23T08:53:57;10.00;;;5.07;;
66342;SDS011;53144;51.524;5.080;2022-08-23T08:56:29;13.07;;;6.80;;
66342;SDS011;53144;51.524;5.080;2022-08-23T08:59:00;11.00;;;6.15;;
66342;SDS011;53144;51.524;5.080;2022-08-23T09:01:32;10.20;;;4.72;;
66342;SDS011;53144;51.524;5.080;2022-08-23T09:04:00;7.28;;;4.72;;
66342;SDS011;53144;51.524;5.080;2022-08-23T09:06:27;11.07;;;5.15;;
66342;SDS011;53144;51.524;5.080;2022-08-23T09:14:52;9.15;;;4.93;;
66342;SDS011;53144;51.524;5.080;2022-08-23T09:17:41;7.10;;;4.60;;
66342;SDS011;53144;51.524;5.080;2022-08-23T09:20:12;11.82;;;4.90;;
66342;SDS011;53144;51.524;5.080;2022-08-23T09:22:43;7.82;;;4.53;;
66342;SDS011;53144;51.524;5.080;2022-08-23T09:25:12;9.57;;;4.55;;
66342;SDS011;53144;51.524;5.080;2022-08-23T09:27:38;11.40;;;4.68;;
66342;SDS011;53144;51.524;5.080;2022-08-23T09:30:07;13.45;;;4.57;;
66342;SDS011;53144;51.524;5.080;2022-08-23T09:32:34;8.05;;;3.83;;
66342;SDS011;53144;51.524;5.080;2022-08-23T09:37:52;6.50;;;3.35;;
66342;SDS011;53144;51.524;5.080;2022-08-23T09:45:40;13.38;;;3.50;;
66342;SDS011;53144;51.524;5.080;2022-08-23T09:48:39;11.50;;;3.40;;
66342;SDS011;53144;51.524;5.080;2022-08-23T09:51:12;6.10;;;2.80;;
66342;SDS011;53144;51.524;5.080;2022-08-23T09:53:47;5.05;;;2.80;;
66342;SDS011;53144;51.524;5.080;2022-08-23T09:56:17;9.80;;;2.80;;
66342;SDS011;53144;51.524;5.080;2022-08-23T09:58:49;7.70;;;2.97;;
66342;SDS011;53144;51.524;5.080;2022-08-23T10:01:28;9.10;;;3.35;;
66342;SDS011;53144;51.524;5.080;2022-08-23T10:06:46;6.32;;;2.50;;
66342;SDS011;53144;51.524;5.080;2022-08-23T10:09:26;8.02;;;2.42;;
66342;SDS011;53144;51.524;5.080;2022-08-23T10:11:56;8.60;;;2.85;;
66342;SDS011;53144;51.524;5.080;2022-08-23T10:14:23;9.02;;;2.60;;
66342;SDS011;53144;51.524;5.080;2022-08-23T10:22:45;5.88;;;2.22;;
66342;SDS011;53144;51.524;5.080;2022-08-23T10:25:34;5.47;;;2.28;;
66342;SDS011;53144;51.524;5.080;2022-08-23T10:33:51;14.63;;;2.75;;
66342;SDS011;53144;51.524;5.080;2022-08-23T10:39:27;5.97;;;2.55;;
66342;SDS011;53144;51.524;5.080;2022-08-23T10:42:04;5.85;;;2.25;;
66342;SDS011;53144;51.524;5.080;2022-08-23T10:47:28;5.93;;;2.45;;
66342;SDS011;53144;51.524;5.080;2022-08-23T10:50:08;8.05;;;2.50;;
66342;SDS011;53144;51.524;5.080;2022-08-23T10:52:39;6.03;;;2.28;;
66342;SDS011;53144;51.524;5.080;2022-08-23T10:58:27;9.07;;;2.50;;
66342;SDS011;53144;51.524;5.080;2022-08-23T11:00:56;7.72;;;2.10;;
66342;SDS011;53144;51.524;5.080;2022-08-23T11:03:34;5.70;;;1.92;;
66342;SDS011;53144;51.524;5.080;2022-08-23T11:14:58;6.13;;;2.05;;
66342;SDS011;53144;51.524;5.080;2022-08-23T11:17:06;5.25;;;2.20;;
66342;SDS011;53144;51.524;5.080;2022-08-23T11:22:18;4.20;;;1.80;;
66342;SDS011;53144;51.524;5.080;2022-08-23T11:25:04;4.70;;;2.20;;
66342;SDS011;53144;51.524;5.080;2022-08-23T11:28:29;8.70;;;2.13;;
66342;SDS011;53144;51.524;5.080;2022-08-23T11:30:48;4.93;;;2.10;;
66342;SDS011;53144;51.524;5.080;2022-08-23T11:33:44;5.97;;;2.30;;
66342;SDS011;53144;51.524;5.080;2022-08-23T11:36:18;5.13;;;1.98;;
66342;SDS011;53144;51.524;5.080;2022-08-23T11:43:48;5.47;;;2.17;;
66342;SDS011;53144;51.524;5.080;2022-08-23T11:55:02;3.65;;;1.83;;
66342;SDS011;53144;51.524;5.080;2022-08-23T12:03:27;9.00;;;1.98;;
66342;SDS011;53144;51.524;5.080;2022-08-23T12:06:07;6.13;;;2.07;;
66342;SDS011;53144;51.524;5.080;2022-08-23T12:11:20;8.80;;;2.15;;
66342;SDS011;53144;51.524;5.080;2022-08-23T12:21:17;4.88;;;1.80;;
66342;SDS011;53144;51.524;5.080;2022-08-23T12:23:50;8.23;;;1.90;;
66342;SDS011;53144;51.524;5.080;2022-08-23T12:26:33;3.72;;;1.80;;
66342;SDS011;53144;51.524;5.080;2022-08-23T12:29:22;11.00;;;2.00;;
66342;SDS011;53144;51.524;5.080;2022-08-23T12:32:01;4.28;;;2.00;;
66342;SDS011;53144;51.524;5.080;2022-08-23T12:38:06;3.28;;;1.80;;
66342;SDS011;53144;51.524;5.080;2022-08-23T12:43:03;8.32;;;2.35;;
66342;SDS011;53144;51.524;5.080;2022-08-23T12:45:38;4.53;;;1.80;;
66342;SDS011;53144;51.524;5.080;2022-08-23T12:48:07;8.70;;;2.00;;
66342;SDS011;53144;51.524;5.080;2022-08-23T12:50:36;5.82;;;2.13;;
66342;SDS011;53144;51.524;5.080;2022-08-23T12:53:05;6.25;;;1.52;;
66342;SDS011;53144;51.524;5.080;2022-08-23T12:55:37;6.18;;;1.85;;
66342;SDS011;53144;51.524;5.080;2022-08-23T12:58:06;9.35;;;2.20;;
66342;SDS011;53144;51.524;5.080;2022-08-23T13:00:36;5.15;;;1.90;;
66342;SDS011;53144;51.524;5.080;2022-08-23T13:04:07;5.40;;;1.80;;
66342;SDS011;53144;51.524;5.080;2022-08-23T13:06:06;4.40;;;1.73;;
66342;SDS011;53144;51.524;5.080;2022-08-23T13:08:41;8.35;;;2.10;;
66342;SDS011;53144;51.524;5.080;2022-08-23T13:11:12;5.32;;;2.15;;
66342;SDS011;53144;51.524;5.080;2022-08-23T13:13:42;6.05;;;1.58;;
66342;SDS011;53144;51.524;5.080;2022-08-23T13:16:25;2.53;;;1.40;;
66342;SDS011;53144;51.524;5.080;2022-08-23T13:21:43;2.05;;;1.48;;
66342;SDS011;53144;51.524;5.080;2022-08-23T13:24:32;7.72;;;1.70;;
66342;SDS011;53144;51.524;5.080;2022-08-23T13:27:20;2.28;;;1.40;;
66342;SDS011;53144;51.524;5.080;2022-08-23T13:32:26;4.35;;;1.50;;
66342;SDS011;53144;51.524;5.080;2022-08-23T13:37:53;3.97;;;1.70;;
66342;SDS011;53144;51.524;5.080;2022-08-23T13:40:31;4.18;;;1.50;;
66342;SDS011;53144;51.524;5.080;2022-08-23T13:43:07;6.28;;;1.50;;
66342;SDS011;53144;51.524;5.080;2022-08-23T13:45:42;1.73;;;1.40;;
66342;SDS011;53144;51.524;5.080;2022-08-23T13:48:15;4.07;;;1.52;;
66342;SDS011;53144;51.524;5.080;2022-08-23T13:50:44;5.80;;;1.50;;
66342;SDS011;53144;51.524;5.080;2022-08-23T13:53:10;2.25;;;1.23;;
66342;SDS011;53144;51.524;5.080;2022-08-23T13:55:40;3.22;;;1.40;;
66342;SDS011;53144;51.524;5.080;2022-08-23T13:58:12;1.30;;;1.13;;
66342;SDS011;53144;51.524;5.080;2022-08-23T14:00:41;3.65;;;1.40;;
66342;SDS011;53144;51.524;5.080;2022-08-23T14:03:06;5.32;;;1.25;;
66342;SDS011;53144;51.524;5.080;2022-08-23T14:05:32;1.85;;;1.10;;
66342;SDS011;53144;51.524;5.080;2022-08-23T14:07:58;3.17;;;1.25;;
66342;SDS011;53144;51.524;5.080;2022-08-23T14:10:24;3.60;;;1.30;;
66342;SDS011;53144;51.524;5.080;2022-08-23T14:12:51;1.73;;;1.20;;
66342;SDS011;53144;51.524;5.080;2022-08-23T14:15:18;1.90;;;1.10;;
66342;SDS011;53144;51.524;5.080;2022-08-23T14:17:48;2.88;;;1.30;;
66342;SDS011;53144;51.524;5.080;2022-08-23T14:20:16;1.58;;;1.00;;
66342;SDS011;53144;51.524;5.080;2022-08-23T14:22:42;1.52;;;1.10;;
66342;SDS011;53144;51.524;5.080;2022-08-23T14:25:08;3.30;;;1.40;;
66342;SDS011;53144;51.524;5.080;2022-08-23T14:27:34;4.72;;;1.20;;
66342;SDS011;53144;51.524;5.080;2022-08-23T14:30:03;3.92;;;1.17;;
66342;SDS011;53144;51.524;5.080;2022-08-23T14:32:29;1.33;;;1.10;;
66342;SDS011;53144;51.524;5.080;2022-08-23T14:34:55;1.65;;;1.15;;
66342;SDS011;53144;51.524;5.080;2022-08-23T14:37:21;3.03;;;1.00;;
66342;SDS011;53144;51.524;5.080;2022-08-23T14:39:46;2.85;;;1.50;;
66342;SDS011;53144;51.524;5.080;2022-08-23T14:42:12;1.23;;;1.10;;
66342;SDS011;53144;51.524;5.080;2022-08-23T14:44:42;3.10;;;1.17;;
66342;SDS011;53144;51.524;5.080;2022-08-23T14:47:08;2.08;;;1.40;;
66342;SDS011;53144;51.524;5.080;2022-08-23T14:49:33;4.70;;;1.50;;
66342;SDS011;53144;51.524;5.080;2022-08-23T14:52:00;3.97;;;1.35;;
66342;SDS011;53144;51.524;5.080;2022-08-23T14:54:26;4.63;;;1.30;;
66342;SDS011;53144;51.524;5.080;2022-08-23T14:56:51;3.65;;;1.30;;
66342;SDS011;53144;51.524;5.080;2022-08-23T14:59:17;3.63;;;1.40;;
66342;SDS011;53144;51.524;5.080;2022-08-23T15:01:43;1.75;;;1.13;;
66342;SDS011;53144;51.524;5.080;2022-08-23T15:04:09;1.58;;;1.40;;
66342;SDS011;53144;51.524;5.080;2022-08-23T15:06:40;3.80;;;1.33;;
66342;SDS011;53144;51.524;5.080;2022-08-23T15:09:06;2.33;;;1.33;;
66342;SDS011;53144;51.524;5.080;2022-08-23T15:11:32;1.40;;;1.30;;
66342;SDS011;53144;51.524;5.080;2022-08-23T15:13:57;4.75;;;1.38;;
66342;SDS011;53144;51.524;5.080;2022-08-23T15:16:23;3.35;;;1.30;;
66342;SDS011;53144;51.524;5.080;2022-08-23T15:18:50;2.75;;;1.33;;
66342;SDS011;53144;51.524;5.080;2022-08-23T15:21:16;2.63;;;1.30;;
66342;SDS011;53144;51.524;5.080;2022-08-23T15:23:42;2.08;;;1.42;;
66342;SDS011;53144;51.524;5.080;2022-08-23T15:26:11;1.23;;;1.15;;
66342;SDS011;53144;51.524;5.080;2022-08-23T15:28:38;6.32;;;1.27;;
66342;SDS011;53144;51.524;5.080;2022-08-23T15:31:04;2.75;;;1.30;;
66342;SDS011;53144;51.524;5.080;2022-08-23T15:33:30;1.20;;;1.10;;
66342;SDS011;53144;51.524;5.080;2022-08-23T15:35:57;2.38;;;1.40;;
66342;SDS011;53144;51.524;5.080;2022-08-23T15:38:26;4.20;;;1.40;;
66342;SDS011;53144;51.524;5.080;2022-08-23T15:40:54;1.73;;;1.10;;
66342;SDS011;53144;51.524;5.080;2022-08-23T15:43:20;2.47;;;1.25;;
66342;SDS011;53144;51.524;5.080;2022-08-23T15:45:46;1.77;;;1.10;;
66342;SDS011;53144;51.524;5.080;2022-08-23T15:48:35;1.38;;;0.90;;
66342;SDS011;53144;51.524;5.080;2022-08-23T15:51:06;3.70;;;1.10;;
66342;SDS011;53144;51.524;5.080;2022-08-23T15:53:32;0.90;;;0.90;;
66342;SDS011;53144;51.524;5.080;2022-08-23T15:55:58;3.13;;;1.30;;
66342;SDS011;53144;51.524;5.080;2022-08-23T15:58:25;1.73;;;1.20;;
66342;SDS011;53144;51.524;5.080;2022-08-23T16:00:51;3.03;;;1.10;;
66342;SDS011;53144;51.524;5.080;2022-08-23T16:03:18;2.15;;;1.05;;
66342;SDS011;53144;51.524;5.080;2022-08-23T16:05:45;2.13;;;1.00;;
66342;SDS011;53144;51.524;5.080;2022-08-23T16:08:33;2.42;;;1.23;;
66342;SDS011;53144;51.524;5.080;2022-08-23T16:11:01;5.15;;;1.23;;
66342;SDS011;53144;51.524;5.080;2022-08-23T16:13:29;1.85;;;1.38;;
66342;SDS011;53144;51.524;5.080;2022-08-23T16:15:54;10.60;;;1.05;;
66342;SDS011;53144;51.524;5.080;2022-08-23T16:18:21;1.58;;;1.20;;
66342;SDS011;53144;51.524;5.080;2022-08-23T16:20:46;1.80;;;1.10;;
66342;SDS011;53144;51.524;5.080;2022-08-23T16:23:11;4.43;;;1.40;;
66342;SDS011;53144;51.524;5.080;2022-08-23T16:25:37;2.55;;;1.00;;
66342;SDS011;53144;51.524;5.080;2022-08-23T16:28:03;3.50;;;1.10;;